createdAt,value
2019-06-07T00:00:38.284Z,60.40
2019-06-07T00:01:29.034Z,60.40
2019-06-07T00:02:30.061Z,61.00
2019-06-07T00:03:31.085Z,60.90
2019-06-07T00:04:32.111Z,60.80
2019-06-07T00:05:33.238Z,60.60
2019-06-07T00:06:34.292Z,60.40
2019-06-07T00:07:37.106Z,60.40
2019-06-07T00:08:38.240Z,60.50
2019-06-07T00:09:39.258Z,60.60
2019-06-07T00:10:40.314Z,60.50
2019-06-07T00:11:41.599Z,60.50
2019-06-07T00:12:42.640Z,60.50
2019-06-07T00:13:43.678Z,60.60
2019-06-07T00:14:44.709Z,60.70
2019-06-07T00:15:45.758Z,60.80
2019-06-07T00:16:46.883Z,60.80
2019-06-07T00:17:47.962Z,60.90
2019-06-07T00:18:48.981Z,60.90
2019-06-07T00:19:50.444Z,61.20
2019-06-07T00:20:51.734Z,61.00
2019-06-07T00:22:15.544Z,61.40
2019-06-07T00:22:55.681Z,61.50
2019-06-07T00:23:56.717Z,61.20
2019-06-07T00:24:57.803Z,60.90
2019-06-07T00:26:21.278Z,60.90
2019-06-07T00:27:22.595Z,60.90
2019-06-07T00:28:23.917Z,60.80
2019-06-07T00:29:25.044Z,60.60
2019-06-07T00:30:41.213Z,60.60
2019-06-07T00:31:29.701Z,60.60
2019-06-07T00:32:30.726Z,60.90
2019-06-07T00:33:31.758Z,60.90
2019-06-07T00:34:32.780Z,60.90
2019-06-07T00:35:33.799Z,61.00
2019-06-07T00:36:34.812Z,61.10
2019-06-07T00:37:35.841Z,61.10
2019-06-07T00:38:37.178Z,61.20
2019-06-07T00:39:38.255Z,61.40
2019-06-07T00:40:39.333Z,61.10
2019-06-07T00:41:40.362Z,60.90
2019-06-07T00:42:41.584Z,61.00
2019-06-07T00:43:42.618Z,61.00
2019-06-07T00:44:43.629Z,61.00
2019-06-07T00:45:44.662Z,61.10
2019-06-07T00:46:45.681Z,61.00
2019-06-07T00:47:47.105Z,61.20
2019-06-07T00:48:48.126Z,61.20
2019-06-07T00:49:49.155Z,61.20
2019-06-07T00:50:50.512Z,61.50
2019-06-07T00:51:52.015Z,61.20
2019-06-07T00:53:57.547Z,61.60
2019-06-07T00:54:58.665Z,61.40
2019-06-07T00:55:59.681Z,61.50
2019-06-07T00:57:00.707Z,61.60
2019-06-07T00:58:02.558Z,61.70
2019-06-07T00:59:11.342Z,61.60
2019-06-07T01:00:07.773Z,61.50
2019-06-07T01:01:09.097Z,61.30
2019-06-07T01:02:10.230Z,61.20
2019-06-07T01:03:12.600Z,61.20
2019-06-07T01:04:15.737Z,61.40
2019-06-07T01:05:20.260Z,61.70
2019-06-07T01:06:22.975Z,61.70
2019-06-07T01:07:24.449Z,61.60
2019-06-07T01:08:29.895Z,61.60
2019-06-07T01:09:28.662Z,61.70
2019-06-07T01:10:52.546Z,61.60
2019-06-07T01:11:32.604Z,61.60
2019-06-07T01:12:33.662Z,62.50
2019-06-07T01:13:34.691Z,61.60
2019-06-07T01:14:35.748Z,61.90
2019-06-07T01:15:36.837Z,61.80
2019-06-07T01:16:56.304Z,61.80
2019-06-07T01:17:59.868Z,61.80
2019-06-07T01:18:46.766Z,61.60
2019-06-07T01:19:46.758Z,61.80
2019-06-07T01:20:47.791Z,62.00
2019-06-07T01:21:48.821Z,62.00
2019-06-07T01:22:49.857Z,62.00
2019-06-07T01:24:12.083Z,62.00
2019-06-07T01:24:53.961Z,62.00
2019-06-07T01:25:55.092Z,61.90
2019-06-07T01:26:56.150Z,61.80
2019-06-07T01:27:57.155Z,62.00
2019-06-07T01:28:58.191Z,62.10
2019-06-07T01:29:59.229Z,62.10
2019-06-07T01:31:00.248Z,62.20
2019-06-07T01:32:01.285Z,62.10
2019-06-07T01:33:02.332Z,62.30
2019-06-07T01:34:03.357Z,62.30
2019-06-07T01:35:05.572Z,62.20
2019-06-07T01:36:06.596Z,62.20
2019-06-07T01:37:08.420Z,62.30
2019-06-07T01:38:09.439Z,62.30
2019-06-07T01:39:10.466Z,62.40
2019-06-07T01:40:13.204Z,62.60
2019-06-07T01:41:14.240Z,62.60
2019-06-07T01:42:18.140Z,62.60
2019-06-07T01:43:19.564Z,62.60
2019-06-07T01:44:24.198Z,62.70
2019-06-07T01:45:26.179Z,62.50
2019-06-07T01:46:28.418Z,62.60
2019-06-07T01:47:32.083Z,62.50
2019-06-07T01:48:48.603Z,62.40
2019-06-07T01:49:35.671Z,62.50
2019-06-07T01:50:36.706Z,62.30
2019-06-07T01:51:37.735Z,62.20
2019-06-07T01:52:38.752Z,62.10
2019-06-07T01:53:39.808Z,62.30
2019-06-07T01:54:55.888Z,62.40
2019-06-07T01:55:43.840Z,62.40
2019-06-07T01:56:44.881Z,62.20
2019-06-07T01:57:48.577Z,62.20
2019-06-07T01:58:49.564Z,61.70
2019-06-07T01:59:50.590Z,61.70
2019-06-07T02:00:51.616Z,61.70
2019-06-07T02:01:52.641Z,61.90
2019-06-07T02:02:53.661Z,62.00
2019-06-07T02:03:54.695Z,62.00
2019-06-07T02:04:55.736Z,62.00
2019-06-07T02:05:56.772Z,62.00
2019-06-07T02:06:57.771Z,62.00
2019-06-07T02:07:58.818Z,62.20
2019-06-07T02:08:59.832Z,62.30
2019-06-07T02:10:00.871Z,62.40
2019-06-07T02:11:01.894Z,62.50
2019-06-07T02:12:24.791Z,62.50
2019-06-07T02:13:06.348Z,62.50
2019-06-07T02:14:07.375Z,62.40
2019-06-07T02:15:09.189Z,62.40
2019-06-07T02:16:10.226Z,62.30
2019-06-07T02:17:11.244Z,62.30
2019-06-07T02:18:12.265Z,62.40
2019-06-07T02:19:13.288Z,62.60
2019-06-07T02:20:14.533Z,62.60
2019-06-07T02:21:15.569Z,62.60
2019-06-07T02:22:16.594Z,63.30
2019-06-07T02:23:17.681Z,62.60
2019-06-07T02:24:21.307Z,62.50
2019-06-07T02:25:38.278Z,62.90
2019-06-07T02:26:25.417Z,63.20
2019-06-07T02:27:29.661Z,63.10
2019-06-07T02:28:44.272Z,63.40
2019-06-07T02:29:33.909Z,63.40
2019-06-07T02:30:44.801Z,63.50
2019-06-07T02:31:39.890Z,63.50
2019-06-07T02:32:41.056Z,63.00
2019-06-07T02:33:42.081Z,63.20
2019-06-07T02:34:43.099Z,63.30
2019-06-07T02:35:44.124Z,63.10
2019-06-07T02:36:45.149Z,62.90
2019-06-07T02:37:47.630Z,62.60
2019-06-07T02:38:48.652Z,62.90
2019-06-07T02:39:49.684Z,63.10
2019-06-07T02:40:50.718Z,63.10
2019-06-07T02:41:52.239Z,62.90
2019-06-07T02:42:53.264Z,62.90
2019-06-07T02:43:54.287Z,63.20
2019-06-07T02:44:55.723Z,63.20
2019-06-07T02:45:56.758Z,63.10
2019-06-07T02:46:57.883Z,63.30
2019-06-07T02:47:58.938Z,63.40
2019-06-07T02:49:00.029Z,63.10
2019-06-07T02:50:03.265Z,63.00
2019-06-07T02:51:04.290Z,62.90
2019-06-07T02:52:05.333Z,62.80
2019-06-07T02:53:06.367Z,62.40
2019-06-07T02:54:07.385Z,62.50
2019-06-07T02:55:09.615Z,62.50
2019-06-07T02:57:13.580Z,62.30
2019-06-07T02:58:14.896Z,62.50
2019-06-07T02:59:15.909Z,62.60
2019-06-07T03:01:00.553Z,62.50
2019-06-07T03:01:45.161Z,62.80
2019-06-07T03:02:46.279Z,62.60
2019-06-07T03:03:47.293Z,62.90
2019-06-07T03:04:48.529Z,63.00
2019-06-07T03:05:49.562Z,63.10
2019-06-07T03:06:51.581Z,63.00
2019-06-07T03:07:52.826Z,63.00
2019-06-07T03:08:54.228Z,62.70
2019-06-07T03:09:55.357Z,62.70
2019-06-07T03:10:56.584Z,62.60
2019-06-07T03:11:59.114Z,62.60
2019-06-07T03:13:01.435Z,62.50
2019-06-07T03:14:02.656Z,62.50
2019-06-07T03:15:05.682Z,62.30
2019-06-07T03:16:08.114Z,62.30
2019-06-07T03:17:14.848Z,62.40
2019-06-07T03:18:36.404Z,62.50
2019-06-07T03:19:41.788Z,62.40
2019-06-07T03:21:02.636Z,62.70
2019-06-07T03:21:47.940Z,62.50
2019-06-07T03:22:49.397Z,62.30
2019-06-07T03:23:55.159Z,62.50
2019-06-07T03:24:59.774Z,62.60
2019-06-07T03:26:03.808Z,62.50
2019-06-07T03:28:08.072Z,62.60
2019-06-07T03:29:09.147Z,62.80
2019-06-07T03:30:36.021Z,62.80
2019-06-07T03:31:13.472Z,62.60
2019-06-07T03:32:14.498Z,62.30
2019-06-07T03:33:15.529Z,62.20
2019-06-07T03:34:16.561Z,62.20
2019-06-07T03:35:17.594Z,62.40
2019-06-07T03:36:23.859Z,62.50
2019-06-07T03:37:21.605Z,62.60
2019-06-07T03:38:22.629Z,62.80
2019-06-07T03:39:23.657Z,62.90
2019-06-07T03:40:24.881Z,62.80
2019-06-07T03:41:28.329Z,62.80
2019-06-07T03:42:29.130Z,62.30
2019-06-07T03:43:32.666Z,62.00
2019-06-07T03:44:37.870Z,62.70
2019-06-07T03:45:41.187Z,61.10
2019-06-07T03:46:41.570Z,61.70
2019-06-07T03:47:43.221Z,61.70
2019-06-07T03:48:44.421Z,61.70
2019-06-07T03:49:45.537Z,61.70
2019-06-07T03:50:46.570Z,61.70
2019-06-07T03:51:47.613Z,61.90
2019-06-07T03:52:48.633Z,61.70
2019-06-07T03:53:49.665Z,61.70
2019-06-07T03:54:50.694Z,62.60
2019-06-07T03:55:51.725Z,62.30
2019-06-07T03:56:52.753Z,61.70
2019-06-07T03:58:30.927Z,61.60
2019-06-07T03:58:56.730Z,61.70
2019-06-07T03:59:57.761Z,61.60
2019-06-07T04:01:01.937Z,61.60
2019-06-07T04:02:01.729Z,61.60
2019-06-07T04:03:02.751Z,62.50
2019-06-07T04:04:03.783Z,62.10
2019-06-07T04:05:05.509Z,61.70
2019-06-07T04:06:06.533Z,61.70
2019-06-07T04:07:07.654Z,61.70
2019-06-07T04:08:08.883Z,62.20
2019-06-07T04:09:09.902Z,62.60
2019-06-07T04:10:11.029Z,62.60
2019-06-07T04:11:12.144Z,62.60
2019-06-07T04:12:13.176Z,62.70
2019-06-07T04:13:14.200Z,62.60
2019-06-07T04:14:15.287Z,62.60
2019-06-07T04:15:16.362Z,62.40
2019-06-07T04:16:17.399Z,62.70
2019-06-07T04:17:18.417Z,62.70
2019-06-07T04:18:19.468Z,62.70
2019-06-07T04:19:20.492Z,62.90
2019-06-07T04:20:21.511Z,63.20
2019-06-07T04:21:22.538Z,62.90
2019-06-07T04:22:23.577Z,62.70
2019-06-07T04:23:28.259Z,62.80
2019-06-07T04:24:28.630Z,62.80
2019-06-07T04:25:33.917Z,62.60
2019-06-07T04:26:34.495Z,62.60
2019-06-07T04:27:39.326Z,62.80
2019-06-07T04:29:31.125Z,62.60
2019-06-07T04:30:05.830Z,62.70
2019-06-07T04:30:45.161Z,62.40
2019-06-07T04:31:46.269Z,62.20
2019-06-07T04:32:47.312Z,62.40
2019-06-07T04:33:48.332Z,62.40
2019-06-07T04:34:49.353Z,61.80
2019-06-07T04:35:51.145Z,61.70
2019-06-07T04:36:59.076Z,62.50
2019-06-07T04:37:55.851Z,62.30
2019-06-07T04:38:57.191Z,62.00
2019-06-07T04:39:58.604Z,62.20
2019-06-07T04:41:00.132Z,62.00
2019-06-07T04:42:01.849Z,61.80
2019-06-07T04:43:04.064Z,61.70
2019-06-07T04:44:05.230Z,62.60
2019-06-07T04:45:29.189Z,61.80
2019-06-07T04:46:10.794Z,62.00
2019-06-07T04:47:13.950Z,61.90
2019-06-07T04:48:15.050Z,62.30
2019-06-07T04:49:18.882Z,61.90
2019-06-07T04:50:19.969Z,61.90
2019-06-07T04:51:24.133Z,61.90
2019-06-07T04:52:25.248Z,61.90
2019-06-07T04:53:26.286Z,61.90
2019-06-07T04:54:27.318Z,61.50
2019-06-07T04:55:29.083Z,61.30
2019-06-07T04:56:32.857Z,61.20
2019-06-07T04:57:34.849Z,61.20
2019-06-07T04:58:38.149Z,61.10
2019-06-07T05:00:11.200Z,61.10
2019-06-07T05:00:54.203Z,61.10
2019-06-07T05:01:44.943Z,61.10
2019-06-07T05:02:45.977Z,61.10
2019-06-07T05:03:47.105Z,60.90
2019-06-07T05:04:48.185Z,60.80
2019-06-07T05:05:49.230Z,61.10
2019-06-07T05:06:50.246Z,61.10
2019-06-07T05:07:51.273Z,61.20
2019-06-07T05:08:52.294Z,61.20
2019-06-07T05:09:53.326Z,61.10
2019-06-07T05:10:54.346Z,61.20
2019-06-07T05:11:55.497Z,61.10
2019-06-07T05:12:56.631Z,61.20
2019-06-07T05:13:57.664Z,61.00
2019-06-07T05:14:58.745Z,60.60
2019-06-07T05:16:00.135Z,60.10
2019-06-07T05:17:01.166Z,60.60
2019-06-07T05:18:02.200Z,60.80
2019-06-07T05:19:03.220Z,60.80
2019-06-07T05:20:04.583Z,60.80
2019-06-07T05:21:06.113Z,61.00
2019-06-07T05:22:07.131Z,61.00
2019-06-07T05:23:08.171Z,61.40
2019-06-07T05:24:10.482Z,61.20
2019-06-07T05:25:12.709Z,61.00
2019-06-07T05:26:13.731Z,60.70
2019-06-07T05:27:14.960Z,61.20
2019-06-07T05:28:15.986Z,61.20
2019-06-07T05:29:17.338Z,61.10
2019-06-07T05:31:36.858Z,61.10
2019-06-07T05:32:41.967Z,61.00
2019-06-07T05:33:41.257Z,60.80
2019-06-07T05:34:47.181Z,60.80
2019-06-07T05:35:45.965Z,60.80
2019-06-07T05:37:08.469Z,60.80
2019-06-07T05:37:49.977Z,60.80
2019-06-07T05:38:51.008Z,60.80
2019-06-07T05:39:52.033Z,60.40
2019-06-07T05:40:53.149Z,60.00
2019-06-07T05:41:54.572Z,59.80
2019-06-07T05:42:55.911Z,59.70
2019-06-07T05:44:12.033Z,59.40
2019-06-07T05:45:00.177Z,59.60
2019-06-07T05:46:01.198Z,59.20
2019-06-07T05:47:02.242Z,59.10
2019-06-07T05:48:04.370Z,58.50
2019-06-07T05:49:05.383Z,58.30
2019-06-07T05:50:37.879Z,58.50
2019-06-07T05:51:09.967Z,58.60
2019-06-07T05:52:11.232Z,58.20
2019-06-07T05:53:12.411Z,58.00
2019-06-07T05:54:13.433Z,57.80
2019-06-07T05:55:14.463Z,57.60
2019-06-07T05:56:16.085Z,57.40
2019-06-07T05:57:17.454Z,57.30
2019-06-07T05:58:18.796Z,57.40
2019-06-07T05:59:20.098Z,57.10
2019-06-07T06:00:21.279Z,57.30
2019-06-07T06:01:46.083Z,56.50
2019-06-07T06:02:25.330Z,56.20
2019-06-07T06:03:27.037Z,56.00
2019-06-07T06:04:28.563Z,55.90
2019-06-07T06:05:34.446Z,55.40
2019-06-07T06:06:33.908Z,55.20
2019-06-07T06:07:38.677Z,55.20
2019-06-07T06:08:39.597Z,54.60
2019-06-07T06:09:43.059Z,54.60
2019-06-07T06:10:48.064Z,54.20
2019-06-07T06:11:59.703Z,54.10
2019-06-07T06:12:51.786Z,53.90
2019-06-07T06:14:06.441Z,53.50
2019-06-07T06:14:55.874Z,53.90
2019-06-07T06:16:02.207Z,53.70
2019-06-07T06:17:00.337Z,53.90
2019-06-07T06:18:01.368Z,53.80
2019-06-07T06:19:02.395Z,53.70
2019-06-07T06:20:04.816Z,53.80
2019-06-07T06:21:17.647Z,53.70
2019-06-07T06:22:08.758Z,53.80
2019-06-07T06:23:10.120Z,53.60
2019-06-07T06:24:11.151Z,53.10
2019-06-07T06:26:15.637Z,52.70
2019-06-07T06:28:02.160Z,52.60
2019-06-07T06:28:19.591Z,53.00
2019-06-07T06:29:20.618Z,52.70
2019-06-07T06:30:22.381Z,52.70
2019-06-07T06:31:23.801Z,52.00
2019-06-07T06:32:44.026Z,52.20
2019-06-07T06:33:34.365Z,52.40
2019-06-07T06:34:30.785Z,52.20
2019-06-07T06:35:31.799Z,52.00
2019-06-07T06:36:32.824Z,52.40
2019-06-07T06:37:33.941Z,52.30
2019-06-07T06:38:34.965Z,52.00
2019-06-07T06:39:37.062Z,52.10
2019-06-07T06:40:40.828Z,52.10
2019-06-07T06:41:52.251Z,52.00
2019-06-07T06:42:48.114Z,52.10
2019-06-07T06:43:51.739Z,52.40
2019-06-07T06:44:54.001Z,52.30
2019-06-07T06:45:53.008Z,52.10
2019-06-07T06:46:58.312Z,52.30
2019-06-07T06:47:56.952Z,51.90
2019-06-07T06:48:58.473Z,52.10
2019-06-07T06:50:01.926Z,52.20
2019-06-07T06:51:03.013Z,52.50
2019-06-07T06:52:04.038Z,52.40
2019-06-07T06:53:05.064Z,52.50
2019-06-07T06:54:06.200Z,52.70
2019-06-07T06:55:08.316Z,52.70
2019-06-07T06:56:09.340Z,52.20
2019-06-07T06:57:19.766Z,52.00
2019-06-07T06:58:13.285Z,51.90
2019-06-07T06:59:37.433Z,52.40
2019-06-07T07:00:21.060Z,52.70
2019-06-07T07:01:22.120Z,52.70
2019-06-07T07:02:23.157Z,52.90
2019-06-07T07:03:56.593Z,52.90
2019-06-07T07:04:27.214Z,53.00
2019-06-07T07:05:28.371Z,53.00
2019-06-07T07:06:29.884Z,52.80
2019-06-07T07:07:31.016Z,52.80
2019-06-07T07:08:32.262Z,52.70
2019-06-07T07:09:33.302Z,52.50
2019-06-07T07:10:40.685Z,52.60
2019-06-07T07:11:55.235Z,52.20
2019-06-07T07:12:45.469Z,52.00
2019-06-07T07:13:49.869Z,52.40
2019-06-07T07:14:51.846Z,52.00
2019-06-07T07:15:58.014Z,52.00
2019-06-07T07:16:56.679Z,52.00
2019-06-07T07:18:07.847Z,52.10
2019-06-07T07:19:01.072Z,52.20
2019-06-07T07:20:04.281Z,52.10
2019-06-07T07:21:05.313Z,51.80
2019-06-07T07:22:06.335Z,51.80
2019-06-07T07:23:07.660Z,52.00
2019-06-07T07:24:21.238Z,52.00
2019-06-07T07:25:11.930Z,52.20
2019-06-07T07:26:12.960Z,52.10
2019-06-07T07:27:13.992Z,52.10
2019-06-07T07:28:15.048Z,52.10
2019-06-07T07:29:16.111Z,52.00
2019-06-07T07:30:36.893Z,52.10
2019-06-07T07:31:26.791Z,52.10
2019-06-07T07:32:27.885Z,52.80
2019-06-07T07:34:19.790Z,52.70
2019-06-07T07:34:36.684Z,52.40
2019-06-07T07:35:34.907Z,52.10
2019-06-07T07:36:39.795Z,52.10
2019-06-07T07:37:38.868Z,52.20
2019-06-07T07:38:39.929Z,52.40
2019-06-07T07:39:41.017Z,52.00
2019-06-07T07:41:01.880Z,51.70
2019-06-07T07:42:12.652Z,51.80
2019-06-07T07:42:50.506Z,51.60
2019-06-07T07:44:00.407Z,51.50
2019-06-07T07:44:56.565Z,51.10
2019-06-07T07:46:02.046Z,50.90
2019-06-07T07:47:00.213Z,51.00
2019-06-07T07:48:14.595Z,50.60
2019-06-07T07:49:04.790Z,50.70
2019-06-07T07:50:06.529Z,50.80
2019-06-07T07:51:07.558Z,50.90
2019-06-07T07:52:08.574Z,50.50
2019-06-07T07:53:09.695Z,50.20
2019-06-07T07:54:11.402Z,50.50
2019-06-07T07:55:12.558Z,50.40
2019-06-07T07:56:16.226Z,50.00
2019-06-07T07:57:17.621Z,50.10
2019-06-07T07:58:18.639Z,50.30
2019-06-07T07:59:19.655Z,50.40
2019-06-07T08:00:52.255Z,50.50
2019-06-07T08:01:24.962Z,50.80
2019-06-07T08:02:25.984Z,50.70
2019-06-07T08:03:27.121Z,50.50
2019-06-07T08:05:12.189Z,50.20
2019-06-07T08:05:42.306Z,49.90
2019-06-07T08:06:34.006Z,49.80
2019-06-07T08:07:35.033Z,49.90
2019-06-07T08:08:36.061Z,49.80
2019-06-07T08:09:37.122Z,50.00
2019-06-07T08:10:38.442Z,49.80
2019-06-07T08:11:39.583Z,49.10
2019-06-07T08:13:00.434Z,49.10
2019-06-07T08:13:43.594Z,49.70
2019-06-07T08:14:44.617Z,49.90
2019-06-07T08:15:48.250Z,49.60
2019-06-07T08:16:49.364Z,50.00
2019-06-07T08:17:55.528Z,50.10
2019-06-07T08:18:57.469Z,49.70
2019-06-07T08:19:57.623Z,49.70
2019-06-07T08:21:20.302Z,49.30
2019-06-07T08:22:01.956Z,49.40
2019-06-07T08:23:03.436Z,50.00
2019-06-07T08:24:05.427Z,49.50
2019-06-07T08:25:07.468Z,49.30
2019-06-07T08:26:08.503Z,49.50
2019-06-07T08:27:25.219Z,49.30
2019-06-07T08:28:12.776Z,49.30
2019-06-07T08:29:13.806Z,49.30
2019-06-07T08:30:47.002Z,49.80
2019-06-07T08:31:18.269Z,50.00
2019-06-07T08:32:19.665Z,49.70
2019-06-07T08:33:27.326Z,49.50
2019-06-07T08:34:23.758Z,49.40
2019-06-07T08:36:40.781Z,49.50
2019-06-07T08:36:41.149Z,50.00
2019-06-07T08:38:14.115Z,50.20
2019-06-07T08:38:47.109Z,49.60
2019-06-07T08:39:36.704Z,49.70
2019-06-07T08:40:37.733Z,49.70
2019-06-07T08:41:53.453Z,49.80
2019-06-07T08:42:59.904Z,49.40
2019-06-07T08:43:44.929Z,49.10
2019-06-07T08:44:46.185Z,49.40
2019-06-07T08:45:47.342Z,49.40
2019-06-07T08:46:56.557Z,48.80
2019-06-07T08:47:57.150Z,49.30
2019-06-07T08:48:57.131Z,48.50
2019-06-07T08:50:02.737Z,48.70
2019-06-07T08:51:06.556Z,48.60
2019-06-07T08:52:09.851Z,48.50
2019-06-07T08:53:12.229Z,49.20
2019-06-07T08:54:22.307Z,49.10
2019-06-07T08:55:13.324Z,49.10
2019-06-07T08:56:14.410Z,49.20
2019-06-07T08:57:21.035Z,48.50
2019-06-07T08:58:18.363Z,48.70
2019-06-07T08:59:19.644Z,48.70
2019-06-07T09:00:45.104Z,48.30
2019-06-07T09:01:25.895Z,48.40
2019-06-07T09:02:26.909Z,48.50
2019-06-07T09:03:27.977Z,48.10
2019-06-07T09:04:29.104Z,48.00
2019-06-07T09:05:30.305Z,47.80
2019-06-07T09:07:34.608Z,47.70
2019-06-07T09:08:35.626Z,47.70
2019-06-07T09:09:36.642Z,47.60
2019-06-07T09:10:37.692Z,47.30
2019-06-07T09:11:38.724Z,47.30
2019-06-07T09:12:39.771Z,47.10
2019-06-07T09:13:40.790Z,47.00
2019-06-07T09:14:59.069Z,46.50
2019-06-07T09:15:44.785Z,46.60
2019-06-07T09:16:45.805Z,48.60
2019-06-07T09:18:30.093Z,47.80
2019-06-07T09:18:49.753Z,47.70
2019-06-07T09:19:51.115Z,46.70
2019-06-07T09:20:52.133Z,47.20
2019-06-07T09:21:54.617Z,46.60
2019-06-07T09:22:59.019Z,46.60
2019-06-07T09:24:03.860Z,46.60
2019-06-07T09:25:19.685Z,46.70
2019-06-07T09:26:16.602Z,46.90
2019-06-07T09:27:12.984Z,46.70
2019-06-07T09:28:19.493Z,46.50
2019-06-07T09:29:17.843Z,46.30
2019-06-07T09:30:25.490Z,46.50
2019-06-07T09:31:48.835Z,46.20
2019-06-07T09:32:29.442Z,47.00
2019-06-07T09:33:30.464Z,45.80
2019-06-07T09:34:31.497Z,46.20
2019-06-07T09:35:32.528Z,46.40
2019-06-07T09:36:33.918Z,46.20
2019-06-07T09:38:38.397Z,46.90
2019-06-07T09:39:39.439Z,46.90
2019-06-07T09:40:40.464Z,46.50
2019-06-07T09:41:49.329Z,46.50
2019-06-07T09:42:44.419Z,47.10
2019-06-07T09:44:14.237Z,45.90
2019-06-07T09:44:48.380Z,45.40
2019-06-07T09:45:49.443Z,45.40
2019-06-07T09:47:12.931Z,46.00
2019-06-07T09:47:53.430Z,45.90
2019-06-07T09:49:13.905Z,45.60
2019-06-07T09:50:04.058Z,45.40
2019-06-07T09:51:06.173Z,45.30
2019-06-07T09:52:08.702Z,45.80
2019-06-07T09:53:20.546Z,45.80
2019-06-07T09:54:11.392Z,45.50
2019-06-07T09:55:23.844Z,44.90
2019-06-07T09:56:15.720Z,45.80
2019-06-07T09:57:17.934Z,45.40
2019-06-07T09:59:22.192Z,45.40
2019-06-07T10:00:40.066Z,45.50
2019-06-07T10:01:26.263Z,44.80
2019-06-07T10:02:27.299Z,44.40
2019-06-07T10:03:28.319Z,44.70
2019-06-07T10:04:31.610Z,44.20
2019-06-07T10:05:32.286Z,43.80
2019-06-07T10:06:33.389Z,43.70
2019-06-07T10:07:34.413Z,43.80
2019-06-07T10:09:57.220Z,44.50
2019-06-07T10:10:43.002Z,44.00
2019-06-07T10:11:44.320Z,43.60
2019-06-07T10:12:45.340Z,43.40
2019-06-07T10:13:46.358Z,43.40
2019-06-07T10:14:47.395Z,44.00
2019-06-07T10:15:48.420Z,43.40
2019-06-07T10:16:49.677Z,43.50
2019-06-07T10:17:50.698Z,43.50
2019-06-07T10:18:52.015Z,43.50
2019-06-07T10:19:53.033Z,43.50
2019-06-07T10:20:54.358Z,43.50
2019-06-07T10:21:55.391Z,43.50
2019-06-07T10:22:56.415Z,43.40
2019-06-07T10:23:57.441Z,43.20
2019-06-07T10:24:59.680Z,43.00
2019-06-07T10:26:01.594Z,42.40
2019-06-07T10:27:04.009Z,42.50
2019-06-07T10:28:06.031Z,42.70
2019-06-07T10:29:08.794Z,42.90
2019-06-07T10:30:10.540Z,42.80
2019-06-07T10:31:11.567Z,43.00
2019-06-07T10:32:12.685Z,43.50
2019-06-07T10:33:13.709Z,42.80
2019-06-07T10:34:14.754Z,43.20
2019-06-07T10:35:16.593Z,43.30
2019-06-07T10:36:17.996Z,42.70
2019-06-07T10:37:19.040Z,42.90
2019-06-07T10:38:20.067Z,44.00
2019-06-07T10:39:21.093Z,43.40
2019-06-07T10:40:22.113Z,43.20
2019-06-07T10:41:23.145Z,42.30
2019-06-07T10:42:24.170Z,42.50
2019-06-07T10:43:25.417Z,42.30
2019-06-07T10:44:26.444Z,42.10
2019-06-07T10:45:27.462Z,41.90
2019-06-07T10:46:28.499Z,42.50
2019-06-07T10:47:29.596Z,41.70
2019-06-07T10:48:30.617Z,42.30
2019-06-07T10:49:31.641Z,42.20
2019-06-07T10:50:32.770Z,42.40
2019-06-07T10:51:33.792Z,41.80
2019-06-07T10:52:34.828Z,41.40
2019-06-07T10:53:35.884Z,41.30
2019-06-07T10:54:37.009Z,41.40
2019-06-07T10:55:38.021Z,41.50
2019-06-07T10:56:39.055Z,41.30
2019-06-07T10:57:40.772Z,42.20
2019-06-07T10:58:41.797Z,41.50
2019-06-07T10:59:42.824Z,41.50
2019-06-07T11:00:44.168Z,42.20
2019-06-07T11:01:45.201Z,41.50
2019-06-07T11:02:46.229Z,42.40
2019-06-07T11:03:47.251Z,41.80
2019-06-07T11:04:48.279Z,40.90
2019-06-07T11:05:49.298Z,40.40
2019-06-07T11:06:50.325Z,40.30
2019-06-07T11:07:51.586Z,40.40
2019-06-07T11:08:53.085Z,40.60
2019-06-07T11:10:06.114Z,39.90
2019-06-07T11:10:57.016Z,39.80
2019-06-07T11:11:58.045Z,39.90
2019-06-07T11:12:59.068Z,40.20
2019-06-07T11:14:00.104Z,40.30
2019-06-07T11:15:01.130Z,39.90
2019-06-07T11:16:02.753Z,40.70
2019-06-07T11:17:05.115Z,40.00
2019-06-07T11:18:06.357Z,40.00
2019-06-07T11:19:08.052Z,40.70
2019-06-07T11:20:10.364Z,40.60
2019-06-07T11:21:12.203Z,40.20
2019-06-07T11:22:14.269Z,39.80
2019-06-07T11:23:15.462Z,39.70
2019-06-07T11:24:21.030Z,39.70
2019-06-07T11:25:19.742Z,39.50
2019-06-07T11:26:20.766Z,39.70
2019-06-07T11:27:21.952Z,40.00
2019-06-07T11:28:23.277Z,39.50
2019-06-07T11:29:24.306Z,39.20
2019-06-07T11:30:25.383Z,39.10
2019-06-07T11:31:26.485Z,39.00
2019-06-07T11:32:27.526Z,39.10
2019-06-07T11:33:28.545Z,38.80
2019-06-07T11:34:29.569Z,39.20
2019-06-07T11:35:30.597Z,40.00
2019-06-07T11:36:31.669Z,39.60
2019-06-07T11:37:33.018Z,39.20
2019-06-07T11:38:34.049Z,38.90
2019-06-07T11:39:35.077Z,38.60
2019-06-07T11:40:36.250Z,38.90
2019-06-07T11:41:37.337Z,38.60
2019-06-07T11:42:39.078Z,38.50
2019-06-07T11:43:40.109Z,38.30
2019-06-07T11:44:55.762Z,37.80
2019-06-07T11:45:44.070Z,38.00
2019-06-07T11:46:45.194Z,38.30
2019-06-07T11:47:46.223Z,38.20
2019-06-07T11:48:47.274Z,37.50
2019-06-07T11:49:48.377Z,37.50
2019-06-07T11:50:49.394Z,37.30
2019-06-07T11:51:50.516Z,37.40
2019-06-07T11:52:51.550Z,37.20
2019-06-07T11:53:52.577Z,38.20
2019-06-07T11:54:53.593Z,38.00
2019-06-07T11:55:54.618Z,38.10
2019-06-07T11:56:55.648Z,38.70
2019-06-07T11:57:56.689Z,38.00
2019-06-07T11:58:57.764Z,38.10
2019-06-07T11:59:58.859Z,38.30
2019-06-07T12:00:59.908Z,37.30
2019-06-07T12:02:00.921Z,36.90
2019-06-07T12:03:02.349Z,36.50
2019-06-07T12:04:03.384Z,36.50
2019-06-07T12:05:05.304Z,36.60
2019-06-07T12:06:08.225Z,36.60
2019-06-07T12:07:10.864Z,36.60
2019-06-07T12:08:12.418Z,36.50
2019-06-07T12:09:14.545Z,36.60
2019-06-07T12:10:20.473Z,36.70
2019-06-07T12:11:18.909Z,37.20
2019-06-07T12:12:20.400Z,37.70
2019-06-07T12:13:21.778Z,36.70
2019-06-07T12:14:22.808Z,36.40
2019-06-07T12:15:23.825Z,35.70
2019-06-07T12:16:24.832Z,35.90
2019-06-07T12:17:25.878Z,35.70
2019-06-07T12:18:26.897Z,35.30
2019-06-07T12:19:27.936Z,35.10
2019-06-07T12:20:28.961Z,35.00
2019-06-07T12:21:30.004Z,35.20
2019-06-07T12:22:31.029Z,35.40
2019-06-07T12:23:32.065Z,35.40
2019-06-07T12:24:33.090Z,35.60
2019-06-07T12:25:34.121Z,35.60
2019-06-07T12:26:35.144Z,35.90
2019-06-07T12:27:36.163Z,36.00
2019-06-07T12:28:37.206Z,35.20
2019-06-07T12:29:38.212Z,34.50
2019-06-07T12:30:39.245Z,35.00
2019-06-07T12:31:40.553Z,34.70
2019-06-07T12:32:41.573Z,34.60
2019-06-07T12:33:42.593Z,33.90
2019-06-07T12:34:43.626Z,33.80
2019-06-07T12:35:44.642Z,33.40
2019-06-07T12:36:45.665Z,33.70
2019-06-07T12:37:46.686Z,33.70
2019-06-07T12:38:47.812Z,33.80
2019-06-07T12:39:48.835Z,33.20
2019-06-07T12:40:57.685Z,33.00
2019-06-07T12:41:52.785Z,32.80
2019-06-07T12:42:53.804Z,33.20
2019-06-07T12:43:54.850Z,33.00
2019-06-07T12:44:55.883Z,33.60
2019-06-07T12:45:56.909Z,33.50
2019-06-07T12:46:57.933Z,33.50
2019-06-07T12:47:58.993Z,33.90
2019-06-07T12:49:00.113Z,33.50
2019-06-07T12:50:02.257Z,33.80
2019-06-07T12:51:03.901Z,33.50
2019-06-07T12:52:04.925Z,34.00
2019-06-07T12:53:06.023Z,33.30
2019-06-07T12:54:07.322Z,33.20
2019-06-07T12:55:08.443Z,32.50
2019-06-07T12:56:10.197Z,31.60
2019-06-07T12:57:11.282Z,31.70
2019-06-07T12:58:12.314Z,33.60
2019-06-07T12:59:13.880Z,32.90
2019-06-07T13:00:16.092Z,32.90
2019-06-07T13:01:18.212Z,31.30
2019-06-07T13:02:21.161Z,31.70
2019-06-07T13:03:22.651Z,30.80
2019-06-07T13:04:25.002Z,31.10
2019-06-07T13:05:26.322Z,31.00
2019-06-07T13:06:28.637Z,31.40
2019-06-07T13:07:29.666Z,31.00
2019-06-07T13:08:30.698Z,29.90
2019-06-07T13:09:31.749Z,30.80
2019-06-07T13:10:32.859Z,31.00
2019-06-07T13:11:34.472Z,30.50
2019-06-07T13:12:35.492Z,30.80
2019-06-07T13:13:36.603Z,30.10
2019-06-07T13:14:37.715Z,30.40
2019-06-07T13:15:40.059Z,30.60
2019-06-07T13:16:41.128Z,31.90
2019-06-07T13:17:42.360Z,31.40
2019-06-07T13:18:43.652Z,31.20
2019-06-07T13:19:44.776Z,30.30
2019-06-07T13:20:45.803Z,30.50
2019-06-07T13:21:46.983Z,30.00
2019-06-07T13:22:48.313Z,30.10
2019-06-07T13:23:49.361Z,30.10
2019-06-07T13:24:50.394Z,30.20